createdAt,value
2018-08-08T00:00:59.886Z,26.17
2018-08-08T00:02:00.464Z,26.30
2018-08-08T00:02:59.878Z,26.44
2018-08-08T00:03:59.866Z,26.52
2018-08-08T00:04:59.850Z,26.62
2018-08-08T00:05:59.836Z,26.70
2018-08-08T00:06:59.843Z,26.72
2018-08-08T00:07:59.833Z,26.72
2018-08-08T00:08:59.809Z,26.80
2018-08-08T00:09:59.795Z,26.72
2018-08-08T00:10:59.789Z,26.66
2018-08-08T00:11:59.815Z,26.58
2018-08-08T00:12:59.780Z,26.51
2018-08-08T00:13:59.765Z,26.52
2018-08-08T00:14:59.757Z,26.58
2018-08-08T00:15:59.754Z,26.48
2018-08-08T00:16:59.762Z,26.47
2018-08-08T00:17:59.732Z,26.47
2018-08-08T00:18:59.730Z,26.43
2018-08-08T00:19:59.711Z,26.40
2018-08-08T00:20:59.700Z,26.37
2018-08-08T00:21:59.708Z,26.21
2018-08-08T00:22:59.686Z,26.18
2018-08-08T00:23:59.685Z,26.12
2018-08-08T00:24:59.660Z,26.10
2018-08-08T00:25:59.657Z,26.10
2018-08-08T00:26:59.727Z,26.09
2018-08-08T00:27:59.632Z,26.13
2018-08-08T00:28:59.629Z,26.10
2018-08-08T00:29:59.621Z,26.07
2018-08-08T00:30:59.625Z,26.09
2018-08-08T00:31:59.620Z,26.10
2018-08-08T00:32:59.612Z,26.09
2018-08-08T00:33:59.592Z,26.06
2018-08-08T00:35:20.586Z,26.06
2018-08-08T00:35:59.562Z,26.12
2018-08-08T00:36:59.574Z,26.10
2018-08-08T00:37:59.555Z,26.09
2018-08-08T00:38:59.548Z,26.10
2018-08-08T00:39:59.531Z,26.07
2018-08-08T00:40:59.520Z,25.98
2018-08-08T00:41:59.525Z,25.98
2018-08-08T00:42:59.521Z,25.95
2018-08-08T00:43:59.494Z,25.88
2018-08-08T00:44:59.502Z,25.88
2018-08-08T00:45:59.498Z,25.77
2018-08-08T00:46:59.486Z,25.77
2018-08-08T00:47:59.456Z,25.77
2018-08-08T00:48:59.441Z,25.70
2018-08-08T00:49:59.444Z,25.55
2018-08-08T00:50:59.440Z,25.67
2018-08-08T00:51:59.422Z,25.62
2018-08-08T00:52:59.404Z,25.65
2018-08-08T00:53:59.417Z,25.55
2018-08-08T00:54:59.409Z,25.54
2018-08-08T00:55:59.386Z,25.43
2018-08-08T00:56:59.374Z,25.46
2018-08-08T00:57:59.387Z,25.36
2018-08-08T00:58:59.374Z,25.45
2018-08-08T00:59:59.353Z,25.39
2018-08-08T01:00:59.329Z,25.45
2018-08-08T01:01:59.339Z,25.35
2018-08-08T01:02:59.314Z,25.43
2018-08-08T01:03:59.310Z,25.28
2018-08-08T01:04:59.322Z,25.43
2018-08-08T01:05:59.292Z,25.39
2018-08-08T01:06:59.314Z,25.38
2018-08-08T01:07:59.298Z,25.38
2018-08-08T01:08:59.411Z,25.36
2018-08-08T01:09:59.987Z,25.38
2018-08-08T01:10:59.243Z,25.39
2018-08-08T01:11:59.236Z,25.42
2018-08-08T01:12:59.250Z,25.54
2018-08-08T01:13:59.229Z,25.69
2018-08-08T01:14:59.220Z,25.70
2018-08-08T01:15:59.199Z,25.79
2018-08-08T01:16:59.201Z,25.90
2018-08-08T01:17:59.205Z,25.99
2018-08-08T01:18:59.172Z,25.98
2018-08-08T01:19:59.161Z,25.98
2018-08-08T01:20:59.151Z,26.09
2018-08-08T01:21:59.159Z,26.05
2018-08-08T01:22:59.146Z,26.12
2018-08-08T01:23:59.134Z,26.06
2018-08-08T01:24:59.110Z,26.05
2018-08-08T01:25:59.127Z,26.10
2018-08-08T01:26:59.105Z,26.10
2018-08-08T01:27:59.121Z,26.07
2018-08-08T01:28:59.071Z,26.09
2018-08-08T01:30:07.097Z,26.06
2018-08-08T01:30:59.051Z,26.06
2018-08-08T01:31:59.088Z,26.01
2018-08-08T01:32:59.052Z,26.01
2018-08-08T01:33:59.047Z,25.97
2018-08-08T01:34:59.016Z,25.97
2018-08-08T01:35:59.015Z,25.99
2018-08-08T01:36:58.994Z,25.90
2018-08-08T01:37:59.004Z,25.90
2018-08-08T01:38:58.997Z,25.91
2018-08-08T01:39:58.974Z,25.91
2018-08-08T01:40:58.957Z,25.92
2018-08-08T01:41:58.974Z,25.94
2018-08-08T01:42:58.944Z,25.94
2018-08-08T01:43:58.946Z,25.94
2018-08-08T01:44:58.953Z,25.87
2018-08-08T01:45:59.014Z,25.88
2018-08-08T01:46:58.909Z,25.82
2018-08-08T01:47:58.901Z,25.85
2018-08-08T01:48:58.907Z,25.76
2018-08-08T01:49:58.914Z,25.82
2018-08-08T01:50:58.867Z,25.80
2018-08-08T01:51:58.871Z,25.82
2018-08-08T01:52:58.856Z,25.73
2018-08-08T01:53:58.841Z,25.67
2018-08-08T01:54:58.850Z,25.70
2018-08-08T01:55:58.825Z,25.75
2018-08-08T01:56:58.810Z,25.69
2018-08-08T01:57:58.825Z,25.64
2018-08-08T01:58:58.800Z,25.70
2018-08-08T01:59:58.804Z,25.65
2018-08-08T02:00:58.783Z,25.69
2018-08-08T02:01:58.766Z,25.72
2018-08-08T02:02:58.764Z,25.75
2018-08-08T02:03:58.811Z,25.72
2018-08-08T02:04:58.749Z,25.75
2018-08-08T02:05:58.731Z,25.73
2018-08-08T02:06:58.735Z,25.72
2018-08-08T02:07:58.709Z,25.80
2018-08-08T02:08:58.697Z,25.82
2018-08-08T02:09:58.695Z,25.85
2018-08-08T02:10:58.691Z,25.83
2018-08-08T02:11:58.675Z,25.85
2018-08-08T02:12:58.706Z,25.73
2018-08-08T02:13:58.653Z,25.79
2018-08-08T02:14:58.645Z,25.70
2018-08-08T02:15:58.633Z,25.70
2018-08-08T02:16:58.638Z,25.62
2018-08-08T02:17:58.638Z,25.67
2018-08-08T02:18:58.602Z,25.67
2018-08-08T02:19:58.615Z,25.67
2018-08-08T02:20:58.582Z,25.75
2018-08-08T02:21:58.584Z,25.75
2018-08-08T02:22:58.573Z,25.73
2018-08-08T02:23:58.558Z,25.69
2018-08-08T02:24:58.555Z,25.70
2018-08-08T02:25:58.557Z,25.73
2018-08-08T02:26:58.541Z,25.73
2018-08-08T02:27:58.539Z,25.60
2018-08-08T02:28:58.517Z,25.61
2018-08-08T02:29:58.498Z,25.64
2018-08-08T02:30:58.497Z,25.54
2018-08-08T02:31:58.492Z,25.51
2018-08-08T02:32:58.473Z,25.50
2018-08-08T02:33:58.479Z,25.32
2018-08-08T02:34:58.473Z,25.33
2018-08-08T02:35:58.469Z,25.30
2018-08-08T02:36:58.519Z,25.28
2018-08-08T02:37:58.433Z,25.28
2018-08-08T02:38:58.447Z,25.30
2018-08-08T02:39:58.409Z,25.23
2018-08-08T02:40:58.403Z,25.24
2018-08-08T02:41:58.393Z,25.24
2018-08-08T02:42:58.386Z,25.18
2018-08-08T02:43:58.412Z,25.15
2018-08-08T02:44:58.373Z,25.20
2018-08-08T02:45:58.352Z,25.21
2018-08-08T02:46:58.347Z,25.18
2018-08-08T02:47:58.337Z,25.09
2018-08-08T02:48:58.347Z,25.06
2018-08-08T02:49:58.334Z,25.10
2018-08-08T02:50:58.318Z,25.09
2018-08-08T02:51:58.311Z,25.09
2018-08-08T02:52:58.303Z,25.06
2018-08-08T02:53:58.281Z,25.05
2018-08-08T02:54:58.302Z,25.05
2018-08-08T02:55:58.255Z,24.90
2018-08-08T02:56:58.261Z,24.96
2018-08-08T02:57:58.253Z,24.81
2018-08-08T02:58:58.235Z,24.77
2018-08-08T02:59:58.225Z,24.78
2018-08-08T03:00:58.230Z,24.78
2018-08-08T03:01:58.208Z,24.78
2018-08-08T03:02:58.193Z,24.76
2018-08-08T03:03:58.186Z,24.76
2018-08-08T03:04:58.179Z,24.85
2018-08-08T03:06:19.211Z,24.85
2018-08-08T03:07:05.672Z,24.91
2018-08-08T03:07:58.143Z,24.81
2018-08-08T03:08:58.156Z,24.83
2018-08-08T03:09:58.134Z,24.84
2018-08-08T03:10:58.120Z,24.77
2018-08-08T03:11:58.126Z,24.73
2018-08-08T03:12:58.096Z,24.61
2018-08-08T03:13:58.091Z,24.62
2018-08-08T03:14:58.077Z,24.60
2018-08-08T03:15:58.101Z,24.61
2018-08-08T03:16:58.061Z,24.46
2018-08-08T03:17:58.050Z,24.34
2018-08-08T03:18:58.055Z,24.32
2018-08-08T03:19:58.074Z,24.15
2018-08-08T03:20:58.040Z,24.12
2018-08-08T03:21:58.049Z,23.95
2018-08-08T03:22:58.005Z,24.00
2018-08-08T03:23:57.988Z,23.98
2018-08-08T03:24:57.994Z,23.93
2018-08-08T03:25:57.964Z,23.93
2018-08-08T03:26:57.990Z,23.90
2018-08-08T03:27:57.948Z,23.83
2018-08-08T03:28:57.941Z,23.78
2018-08-08T03:29:57.958Z,23.69
2018-08-08T03:30:57.936Z,23.55
2018-08-08T03:31:57.926Z,23.50
2018-08-08T03:32:57.946Z,23.36
2018-08-08T03:33:57.918Z,23.22
2018-08-08T03:34:57.879Z,23.23
2018-08-08T03:35:57.870Z,23.22
2018-08-08T03:36:57.858Z,23.12
2018-08-08T03:37:57.851Z,23.07
2018-08-08T03:38:57.854Z,23.01
2018-08-08T03:39:57.873Z,22.85
2018-08-08T03:40:57.888Z,22.92
2018-08-08T03:41:57.819Z,22.83
2018-08-08T03:42:57.810Z,22.91
2018-08-08T03:43:57.790Z,22.85
2018-08-08T03:44:57.879Z,22.82
2018-08-08T03:45:57.826Z,22.82
2018-08-08T03:46:58.638Z,22.91
2018-08-08T03:47:57.743Z,22.94
2018-08-08T03:48:57.781Z,23.01
2018-08-08T03:49:57.751Z,22.97
2018-08-08T03:50:57.722Z,22.91
2018-08-08T03:51:57.707Z,22.88
2018-08-08T03:52:57.716Z,22.79
2018-08-08T03:53:57.672Z,22.68
2018-08-08T03:54:57.726Z,22.70
2018-08-08T03:55:57.654Z,22.64
2018-08-08T03:56:57.646Z,22.57
2018-08-08T03:57:57.630Z,22.49
2018-08-08T03:58:57.660Z,22.43
2018-08-08T03:59:57.614Z,22.36
2018-08-08T04:00:57.608Z,22.27
2018-08-08T04:01:57.616Z,22.20
2018-08-08T04:02:57.585Z,22.12
2018-08-08T04:03:57.585Z,22.17
2018-08-08T04:04:57.555Z,22.25
2018-08-08T04:05:57.565Z,22.12
2018-08-08T04:06:57.559Z,22.18
2018-08-08T04:07:57.519Z,22.17
2018-08-08T04:08:57.528Z,22.15
2018-08-08T04:09:57.498Z,22.21
2018-08-08T04:10:57.481Z,22.10
2018-08-08T04:11:57.476Z,22.00
2018-08-08T04:12:57.467Z,21.94
2018-08-08T04:13:57.472Z,21.88
2018-08-08T04:14:57.457Z,21.98
2018-08-08T04:15:57.431Z,21.96
2018-08-08T04:16:57.419Z,21.77
2018-08-08T04:17:57.416Z,21.90
2018-08-08T04:18:57.399Z,21.90
2018-08-08T04:19:57.377Z,21.86
2018-08-08T04:20:57.392Z,21.83
2018-08-08T04:21:57.364Z,21.72
2018-08-08T04:22:57.360Z,21.67
2018-08-08T04:23:57.346Z,21.71
2018-08-08T04:24:57.334Z,21.59
2018-08-08T04:25:57.323Z,21.59
2018-08-08T04:26:57.305Z,21.54
2018-08-08T04:27:57.289Z,21.71
2018-08-08T04:28:57.280Z,21.65
2018-08-08T04:29:57.270Z,21.67
2018-08-08T04:30:57.317Z,21.75
2018-08-08T04:32:18.258Z,21.59
2018-08-08T04:32:57.232Z,21.69
2018-08-08T04:33:57.231Z,21.75
2018-08-08T04:34:57.209Z,21.86
2018-08-08T04:35:57.215Z,21.90
2018-08-08T04:36:57.188Z,21.84
2018-08-08T04:37:57.180Z,21.96
2018-08-08T04:38:57.161Z,21.99
2018-08-08T04:39:57.145Z,22.05
2018-08-08T04:40:57.137Z,21.92
2018-08-08T04:41:57.146Z,21.88
2018-08-08T04:42:57.118Z,21.86
2018-08-08T04:43:57.103Z,21.79
2018-08-08T04:44:57.087Z,21.72
2018-08-08T04:45:57.094Z,21.74
2018-08-08T04:46:57.129Z,21.56
2018-08-08T04:47:57.067Z,21.59
2018-08-08T04:48:57.047Z,21.71
2018-08-08T04:49:57.026Z,21.69
2018-08-08T04:50:57.075Z,21.71
2018-08-08T04:51:57.019Z,21.72
2018-08-08T04:52:56.993Z,21.74
2018-08-08T04:53:56.981Z,21.69
2018-08-08T04:54:56.978Z,21.62
2018-08-08T04:55:56.973Z,21.68
2018-08-08T04:56:56.945Z,21.71
2018-08-08T04:57:56.935Z,21.72
2018-08-08T04:58:56.920Z,21.67
2018-08-08T04:59:56.915Z,21.71
2018-08-08T05:00:56.897Z,21.69
2018-08-08T05:01:56.903Z,21.71
2018-08-08T05:02:56.872Z,21.69
2018-08-08T05:03:56.868Z,21.69
2018-08-08T05:04:56.847Z,21.72
2018-08-08T05:05:56.831Z,21.71
2018-08-08T05:06:56.828Z,21.69
2018-08-08T05:07:56.846Z,21.74
2018-08-08T05:08:56.817Z,21.74
2018-08-08T05:09:56.787Z,21.72
2018-08-08T05:10:56.774Z,21.74
2018-08-08T05:11:56.760Z,21.67
2018-08-08T05:12:56.750Z,21.75
2018-08-08T05:13:56.754Z,21.69
2018-08-08T05:14:56.721Z,21.68
2018-08-08T05:15:56.710Z,21.59
2018-08-08T05:16:56.700Z,21.67
2018-08-08T05:17:56.684Z,21.59
2018-08-08T05:18:56.693Z,21.54
2018-08-08T05:19:56.696Z,21.46
2018-08-08T05:20:56.653Z,21.58
2018-08-08T05:21:56.643Z,21.47
2018-08-08T05:22:56.633Z,21.61
2018-08-08T05:23:56.613Z,21.59
2018-08-08T05:24:56.637Z,21.69
2018-08-08T05:25:56.594Z,21.62
2018-08-08T05:26:56.604Z,21.65
2018-08-08T05:27:56.567Z,21.71
2018-08-08T05:28:56.548Z,21.84
2018-08-08T05:29:56.540Z,21.86
2018-08-08T05:30:56.547Z,21.92
2018-08-08T05:31:56.517Z,21.88
2018-08-08T05:32:56.503Z,21.86
2018-08-08T05:33:56.493Z,21.79
2018-08-08T05:34:56.495Z,21.71
2018-08-08T05:35:56.483Z,21.74
2018-08-08T05:36:56.451Z,21.84
2018-08-08T05:37:56.444Z,21.84
2018-08-08T05:38:56.433Z,21.79
2018-08-08T05:39:56.421Z,21.69
2018-08-08T05:40:56.424Z,21.71
2018-08-08T05:41:56.395Z,21.74
2018-08-08T05:42:56.392Z,21.68
2018-08-08T05:43:56.372Z,21.68
2018-08-08T05:44:56.355Z,21.75
2018-08-08T05:45:56.362Z,21.74
2018-08-08T05:46:56.337Z,21.71
2018-08-08T05:47:56.323Z,21.71
2018-08-08T05:48:56.310Z,21.75
2018-08-08T05:49:56.298Z,21.74
2018-08-08T05:50:56.305Z,21.61
2018-08-08T05:51:56.279Z,21.67
2018-08-08T05:52:56.278Z,21.65
2018-08-08T05:53:56.252Z,21.65
2018-08-08T05:54:56.246Z,21.82
2018-08-08T05:55:56.245Z,21.86
2018-08-08T05:56:56.235Z,21.91
2018-08-08T05:57:56.208Z,21.86
2018-08-08T05:58:56.192Z,21.90
2018-08-08T05:59:56.183Z,21.90
2018-08-08T06:00:56.183Z,21.99
2018-08-08T06:01:56.157Z,21.92
2018-08-08T06:02:56.141Z,21.88
2018-08-08T06:03:56.140Z,21.90
2018-08-08T06:04:56.120Z,21.91
2018-08-08T06:05:56.127Z,21.92
2018-08-08T06:06:56.098Z,21.91
2018-08-08T06:07:56.099Z,21.84
2018-08-08T06:08:56.078Z,21.88
2018-08-08T06:09:56.064Z,22.00
2018-08-08T06:10:56.049Z,21.94
2018-08-08T06:11:56.037Z,21.84
2018-08-08T06:12:56.041Z,22.03
2018-08-08T06:13:56.012Z,22.05
2018-08-08T06:14:56.021Z,22.22
2018-08-08T06:15:55.991Z,22.18
2018-08-08T06:16:55.976Z,22.18
2018-08-08T06:17:55.975Z,22.14
2018-08-08T06:18:55.964Z,22.15
2018-08-08T06:19:55.957Z,22.17
2018-08-08T06:20:55.932Z,22.17
2018-08-08T06:21:55.918Z,22.17
2018-08-08T06:22:55.907Z,22.15
2018-08-08T06:23:55.908Z,22.12
2018-08-08T06:24:55.880Z,21.98
2018-08-08T06:25:55.868Z,22.09
2018-08-08T06:26:55.857Z,22.09
2018-08-08T06:27:55.844Z,22.18
2018-08-08T06:28:55.849Z,22.18
2018-08-08T06:29:55.822Z,22.17
2018-08-08T06:30:55.806Z,22.18
2018-08-08T06:31:55.799Z,22.12
2018-08-08T06:32:55.781Z,22.25
2018-08-08T06:33:55.839Z,22.15
2018-08-08T06:34:55.784Z,22.18
2018-08-08T06:35:55.763Z,22.20
2018-08-08T06:36:55.736Z,22.14
2018-08-08T06:37:55.726Z,22.21
2018-08-08T06:38:55.721Z,22.21
2018-08-08T06:39:55.714Z,22.24
2018-08-08T06:40:55.688Z,22.31
2018-08-08T06:41:55.680Z,22.36
2018-08-08T06:42:55.664Z,22.22
2018-08-08T06:43:55.733Z,22.27
2018-08-08T06:44:55.645Z,22.30
2018-08-08T06:45:55.645Z,22.27
2018-08-08T06:46:55.623Z,22.24
2018-08-08T06:47:55.612Z,22.31
2018-08-08T06:48:55.599Z,22.39
2018-08-08T06:49:55.594Z,22.37
2018-08-08T06:50:55.586Z,22.43
2018-08-08T06:51:55.576Z,22.37
2018-08-08T06:52:55.574Z,22.40
2018-08-08T06:53:55.561Z,22.46
2018-08-08T06:54:55.523Z,22.40
2018-08-08T06:55:55.526Z,22.47
2018-08-08T06:56:55.504Z,22.55
2018-08-08T06:57:55.505Z,22.49
2018-08-08T06:58:55.476Z,22.67
2018-08-08T06:59:55.514Z,22.55
2018-08-08T07:00:55.459Z,22.61
2018-08-08T07:01:55.506Z,22.68
2018-08-08T07:02:55.437Z,22.57
2018-08-08T07:03:55.417Z,22.57
2018-08-08T07:04:55.411Z,22.57
2018-08-08T07:05:55.419Z,22.68
2018-08-08T07:06:55.393Z,22.65
2018-08-08T07:07:55.403Z,22.65
2018-08-08T07:08:55.367Z,22.77
2018-08-08T07:09:55.355Z,22.76
2018-08-08T07:10:55.346Z,22.68
2018-08-08T07:11:55.349Z,22.68
2018-08-08T07:12:55.348Z,22.64
2018-08-08T07:13:55.351Z,22.82
2018-08-08T07:14:58.164Z,22.83
2018-08-08T07:15:55.335Z,22.91
2018-08-08T07:16:56.233Z,23.02
2018-08-08T07:17:55.737Z,23.10
2018-08-08T07:18:55.252Z,23.20
2018-08-08T07:19:55.331Z,23.16
2018-08-08T07:20:55.766Z,23.36
2018-08-08T07:21:55.213Z,23.42
2018-08-08T07:22:56.667Z,23.47
2018-08-08T07:23:55.204Z,23.54
2018-08-08T07:24:56.165Z,23.46
2018-08-08T07:25:55.172Z,23.55
2018-08-08T07:26:55.175Z,23.69
2018-08-08T07:27:55.152Z,23.78
2018-08-08T07:28:55.153Z,23.69
2018-08-08T07:29:55.130Z,23.78
2018-08-08T07:30:55.125Z,23.97
2018-08-08T07:31:55.105Z,23.98
2018-08-08T07:32:55.113Z,23.98
2018-08-08T07:33:55.084Z,24.21
2018-08-08T07:34:55.077Z,24.32
2018-08-08T07:35:55.061Z,24.37
2018-08-08T07:36:55.051Z,24.46
2018-08-08T07:37:55.057Z,24.46
2018-08-08T07:38:55.049Z,24.40
2018-08-08T07:39:55.060Z,24.49
2018-08-08T07:40:55.012Z,24.32
2018-08-08T07:41:54.996Z,24.35
2018-08-08T07:42:54.990Z,24.35
2018-08-08T07:43:55.015Z,24.21
2018-08-08T07:44:54.970Z,24.30
2018-08-08T07:45:54.959Z,24.18
2018-08-08T07:46:54.943Z,24.20
2018-08-08T07:47:54.941Z,24.22
2018-08-08T07:48:54.928Z,24.15
2018-08-08T07:49:54.933Z,24.20
2018-08-08T07:50:54.906Z,24.09
2018-08-08T07:51:54.895Z,24.22
2018-08-08T07:52:54.881Z,24.09
2018-08-08T07:53:54.885Z,24.08
2018-08-08T07:54:54.863Z,23.90
2018-08-08T07:55:54.872Z,23.93
2018-08-08T07:56:54.841Z,23.84
2018-08-08T07:57:54.860Z,23.88
2018-08-08T07:58:54.861Z,23.90
2018-08-08T07:59:54.819Z,23.80
2018-08-08T08:00:54.818Z,23.79
2018-08-08T08:01:54.800Z,23.85
2018-08-08T08:02:54.780Z,23.79
2018-08-08T08:03:54.769Z,23.73
2018-08-08T08:04:54.773Z,23.76
2018-08-08T08:05:54.767Z,23.87
2018-08-08T08:06:54.737Z,23.90
2018-08-08T08:07:54.729Z,23.95
2018-08-08T08:08:54.716Z,23.91
2018-08-08T08:09:54.706Z,24.08
2018-08-08T08:10:54.712Z,24.08
2018-08-08T08:11:54.683Z,23.97
2018-08-08T08:12:54.728Z,24.18
2018-08-08T08:13:54.664Z,24.30
2018-08-08T08:14:54.657Z,24.45
2018-08-08T08:15:54.657Z,24.43
2018-08-08T08:16:54.635Z,24.31
2018-08-08T08:17:54.622Z,24.18
2018-08-08T08:18:54.611Z,24.20
2018-08-08T08:19:54.603Z,24.15
2018-08-08T08:20:54.618Z,24.08
2018-08-08T08:21:54.576Z,24.09
2018-08-08T08:22:54.568Z,24.24
2018-08-08T08:23:54.556Z,24.34
2018-08-08T08:24:54.543Z,24.45
2018-08-08T08:25:54.536Z,24.35
2018-08-08T08:26:54.543Z,24.47
2018-08-08T08:27:54.520Z,24.34
2018-08-08T08:28:54.502Z,24.34
2018-08-08T08:29:54.539Z,24.43
2018-08-08T08:30:54.486Z,24.32
2018-08-08T08:31:54.490Z,24.24
2018-08-08T08:32:54.491Z,24.16
2018-08-08T08:33:54.456Z,24.08
2018-08-08T08:34:54.444Z,24.06
2018-08-08T08:35:54.443Z,24.00
2018-08-08T08:36:54.452Z,23.94
2018-08-08T08:37:54.445Z,24.02
2018-08-08T08:38:54.420Z,24.08
2018-08-08T08:39:54.419Z,24.10
2018-08-08T08:40:54.383Z,24.05
2018-08-08T08:41:54.369Z,24.03
2018-08-08T08:42:54.359Z,24.12
2018-08-08T08:43:54.365Z,24.08
2018-08-08T08:44:54.336Z,24.06
2018-08-08T08:45:54.327Z,24.06
2018-08-08T08:46:54.326Z,24.13
2018-08-08T08:47:54.307Z,24.16
2018-08-08T08:48:54.295Z,24.22
2018-08-08T08:49:54.376Z,24.22
2018-08-08T08:50:54.279Z,24.20
2018-08-08T08:51:54.263Z,24.34
2018-08-08T08:52:54.256Z,24.46
2018-08-08T08:53:54.247Z,24.39
2018-08-08T08:54:54.230Z,24.40
2018-08-08T08:55:54.243Z,24.58
2018-08-08T08:56:54.209Z,24.62
2018-08-08T08:57:54.217Z,24.57
2018-08-08T08:58:54.193Z,24.77
2018-08-08T08:59:54.181Z,24.77
2018-08-08T09:00:54.170Z,24.73
2018-08-08T09:01:54.162Z,24.83
2018-08-08T09:02:54.171Z,24.78
2018-08-08T09:03:54.141Z,24.87
2018-08-08T09:04:54.130Z,24.93
2018-08-08T09:05:54.118Z,24.99
2018-08-08T09:06:54.112Z,24.85
2018-08-08T09:07:54.113Z,25.18
2018-08-08T09:08:54.088Z,25.14
2018-08-08T09:09:54.080Z,25.21
2018-08-08T09:10:54.063Z,25.21
2018-08-08T09:11:54.071Z,25.15
2018-08-08T09:12:54.045Z,25.28
2018-08-08T09:13:54.039Z,25.27
2018-08-08T09:14:54.053Z,25.28
2018-08-08T09:15:54.018Z,25.30
2018-08-08T09:16:54.026Z,25.24
2018-08-08T09:17:54.009Z,25.20
2018-08-08T09:18:53.988Z,25.17
2018-08-08T09:19:53.978Z,25.24
2018-08-08T09:20:53.968Z,25.30
2018-08-08T09:21:53.957Z,25.46
2018-08-08T09:22:53.965Z,25.64
2018-08-08T09:23:53.937Z,26.20
2018-08-08T09:24:53.949Z,26.70
2018-08-08T09:25:53.939Z,26.60
2018-08-08T09:26:53.915Z,26.52
2018-08-08T09:27:53.915Z,26.40
2018-08-08T09:28:53.889Z,26.97
2018-08-08T09:29:53.876Z,27.70
2018-08-08T09:30:53.899Z,27.82
2018-08-08T09:31:53.858Z,28.25
2018-08-08T09:32:53.850Z,28.40
2018-08-08T09:33:53.865Z,28.68
2018-08-08T09:34:53.831Z,28.78
2018-08-08T09:35:53.834Z,28.76
2018-08-08T09:36:53.816Z,28.73
2018-08-08T09:37:53.851Z,28.37
2018-08-08T09:38:53.802Z,28.52
2018-08-08T09:39:53.805Z,29.06
2018-08-08T09:40:53.782Z,29.79
2018-08-08T09:41:53.776Z,29.00
2018-08-08T09:42:53.772Z,28.07
2018-08-08T09:43:53.816Z,28.37
2018-08-08T09:44:53.773Z,27.88
2018-08-08T09:45:53.750Z,27.32
2018-08-08T09:46:53.742Z,26.84
2018-08-08T09:47:53.753Z,26.89
2018-08-08T09:48:53.743Z,26.58
2018-08-08T09:49:53.741Z,26.75
2018-08-08T09:50:53.721Z,26.77
2018-08-08T09:51:53.711Z,27.18
2018-08-08T09:52:53.703Z,27.17
2018-08-08T09:53:53.696Z,27.12
2018-08-08T09:54:53.693Z,27.00
2018-08-08T09:55:53.699Z,26.76
2018-08-08T09:56:53.674Z,27.12
2018-08-08T09:57:53.666Z,27.63
2018-08-08T09:58:53.661Z,27.34
2018-08-08T09:59:53.679Z,27.03
2018-08-08T10:00:53.644Z,27.29
2018-08-08T10:01:53.641Z,28.03
2018-08-08T10:02:53.631Z,28.19
2018-08-08T10:03:53.696Z,28.49
2018-08-08T10:04:53.616Z,28.30
2018-08-08T10:05:53.624Z,28.33
2018-08-08T10:06:53.615Z,28.39
2018-08-08T10:07:53.595Z,28.24
2018-08-08T10:08:53.593Z,27.94
2018-08-08T10:09:53.586Z,28.49
2018-08-08T10:10:53.570Z,29.42
2018-08-08T10:11:53.583Z,29.18
2018-08-08T10:12:53.562Z,28.90
2018-08-08T10:13:53.551Z,28.73
2018-08-08T10:14:53.545Z,28.27
2018-08-08T10:15:53.536Z,27.29
2018-08-08T10:16:53.541Z,26.89
2018-08-08T10:17:53.522Z,26.54
2018-08-08T10:18:53.565Z,26.69
2018-08-08T10:19:53.511Z,27.59
2018-08-08T10:20:53.503Z,27.60
2018-08-08T10:21:53.522Z,28.56
2018-08-08T10:22:53.491Z,29.31
2018-08-08T10:23:53.489Z,30.05
2018-08-08T10:24:53.495Z,30.31
2018-08-08T10:25:53.471Z,29.95
2018-08-08T10:26:53.523Z,29.36
2018-08-08T10:27:53.459Z,28.98
2018-08-08T10:28:53.454Z,28.92
2018-08-08T10:29:53.442Z,28.40
2018-08-08T10:30:53.460Z,28.34
2018-08-08T10:31:53.436Z,28.17
2018-08-08T10:32:53.457Z,28.09
2018-08-08T10:33:53.423Z,27.77
2018-08-08T10:34:53.420Z,28.29
2018-08-08T10:35:53.425Z,28.66
2018-08-08T10:36:53.422Z,28.86
2018-08-08T10:37:53.402Z,29.27
2018-08-08T10:38:53.396Z,29.64
2018-08-08T10:39:53.385Z,29.49
2018-08-08T10:40:53.379Z,28.77
2018-08-08T10:41:53.395Z,28.55
2018-08-08T10:42:53.385Z,28.03
2018-08-08T10:43:53.363Z,27.69
2018-08-08T10:44:53.356Z,27.49
2018-08-08T10:45:53.351Z,27.51
2018-08-08T10:46:53.366Z,27.36
2018-08-08T10:47:53.343Z,27.14
2018-08-08T10:48:53.336Z,27.34
2018-08-08T10:49:53.407Z,27.67
2018-08-08T10:50:53.322Z,27.96
2018-08-08T10:51:53.329Z,27.62
2018-08-08T10:52:53.308Z,27.84
2018-08-08T10:53:53.302Z,28.37
2018-08-08T10:54:53.299Z,29.12
2018-08-08T10:55:53.297Z,29.12
2018-08-08T10:56:53.283Z,29.18
2018-08-08T10:57:53.297Z,29.52
2018-08-08T10:58:53.270Z,29.89
2018-08-08T10:59:53.264Z,29.51
2018-08-08T11:00:53.259Z,29.85
2018-08-08T11:01:53.257Z,29.73
2018-08-08T11:02:53.267Z,29.58
2018-08-08T11:03:53.240Z,28.77
2018-08-08T11:04:53.238Z,28.43
2018-08-08T11:05:53.240Z,28.61
2018-08-08T11:06:53.251Z,28.83
2018-08-08T11:07:53.226Z,28.73
2018-08-08T11:08:53.219Z,28.51
2018-08-08T11:09:53.212Z,28.11
2018-08-08T11:10:53.211Z,27.81
2018-08-08T11:11:53.238Z,27.51
2018-08-08T11:12:53.216Z,27.25
2018-08-08T11:13:53.200Z,26.99
2018-08-08T11:14:53.201Z,26.85
2018-08-08T11:15:53.181Z,26.77
2018-08-08T11:16:53.192Z,26.69
2018-08-08T11:17:53.163Z,26.66
2018-08-08T11:18:53.179Z,26.76
2018-08-08T11:19:53.167Z,27.03
2018-08-08T11:20:53.148Z,27.18
2018-08-08T11:21:53.141Z,27.32
2018-08-08T11:22:53.137Z,27.41
2018-08-08T11:23:53.216Z,27.87
2018-08-08T11:24:53.132Z,27.77
2018-08-08T11:25:53.112Z,28.04
2018-08-08T11:26:53.115Z,28.17
2018-08-08T11:27:53.095Z,28.64
2018-08-08T11:28:53.108Z,28.54
2018-08-08T11:29:53.119Z,28.04
2018-08-08T11:30:53.082Z,27.88
2018-08-08T11:31:53.080Z,27.96
2018-08-08T11:32:53.061Z,28.15
2018-08-08T11:33:53.062Z,28.41
2018-08-08T11:34:53.055Z,28.34
2018-08-08T11:35:53.059Z,28.19
2018-08-08T11:36:53.080Z,27.70
2018-08-08T11:37:53.044Z,27.62
2018-08-08T11:38:53.087Z,27.82
2018-08-08T11:39:53.022Z,27.82
2018-08-08T11:40:53.035Z,28.27
2018-08-08T11:41:53.003Z,28.58
2018-08-08T11:42:53.004Z,28.48
2018-08-08T11:43:52.996Z,28.15
2018-08-08T11:44:52.988Z,27.88
2018-08-08T11:45:52.997Z,27.65
2018-08-08T11:46:53.015Z,27.13
2018-08-08T11:47:52.970Z,27.02
2018-08-08T11:48:52.962Z,26.87
2018-08-08T11:49:52.955Z,27.43
2018-08-08T11:50:52.954Z,28.11
2018-08-08T11:51:52.956Z,27.90
2018-08-08T11:52:52.934Z,27.85
2018-08-08T11:53:52.942Z,27.99
2018-08-08T11:54:52.921Z,27.87
2018-08-08T11:55:52.914Z,28.00
2018-08-08T11:56:52.909Z,27.93
2018-08-08T11:57:52.901Z,27.75
2018-08-08T11:58:52.914Z,27.49
2018-08-08T11:59:52.888Z,27.21
2018-08-08T12:00:52.885Z,27.12
2018-08-08T12:01:52.936Z,27.12
2018-08-08T12:02:52.871Z,27.60
2018-08-08T12:03:52.863Z,27.46
2018-08-08T12:04:52.866Z,27.77
2018-08-08T12:05:52.848Z,27.49
2018-08-08T12:06:52.841Z,27.25
2018-08-08T12:07:52.835Z,27.12
2018-08-08T12:08:52.842Z,27.49
2018-08-08T12:09:52.829Z,27.78
2018-08-08T12:10:52.825Z,27.82
2018-08-08T12:11:52.806Z,27.96
2018-08-08T12:12:52.808Z,27.94
2018-08-08T12:13:52.808Z,27.70
2018-08-08T12:14:52.788Z,27.66
2018-08-08T12:15:52.800Z,27.28
2018-08-08T12:16:52.772Z,26.97
2018-08-08T12:17:52.775Z,26.67
2018-08-08T12:18:52.815Z,26.55
2018-08-08T12:19:52.758Z,26.52
2018-08-08T12:20:52.745Z,26.43
2018-08-08T12:21:52.760Z,26.28
2018-08-08T12:22:52.797Z,26.36
2018-08-08T12:23:52.722Z,26.39
2018-08-08T12:24:52.729Z,26.55
2018-08-08T12:25:52.780Z,26.84
2018-08-08T12:26:52.698Z,27.74
2018-08-08T12:27:52.690Z,28.03
2018-08-08T12:28:52.704Z,28.11
2018-08-08T12:29:52.696Z,28.04
2018-08-08T12:30:52.684Z,27.84
2018-08-08T12:31:52.662Z,27.55
2018-08-08T12:32:52.661Z,26.92
2018-08-08T12:33:52.662Z,26.60
2018-08-08T12:34:52.641Z,26.54
2018-08-08T12:35:52.622Z,26.54
2018-08-08T12:36:52.622Z,26.55
2018-08-08T12:37:52.613Z,26.60
2018-08-08T12:38:52.623Z,26.75
2018-08-08T12:39:52.615Z,26.89
2018-08-08T12:40:52.591Z,27.29
2018-08-08T12:41:52.599Z,27.27
2018-08-08T12:42:52.636Z,27.27
2018-08-08T12:43:52.600Z,27.14
2018-08-08T12:44:52.561Z,27.17
2018-08-08T12:45:52.557Z,27.13
2018-08-08T12:46:52.542Z,27.14
2018-08-08T12:47:52.539Z,27.32
2018-08-08T12:48:52.536Z,27.34
2018-08-08T12:49:52.539Z,27.63
2018-08-08T12:50:52.542Z,27.40
2018-08-08T12:51:52.510Z,26.99
2018-08-08T12:52:52.499Z,26.36